Aeroporto :
LOGIN :

Iscrizione | Disclaimer

   EN    FR    IT 

 










Sommario :    VFR   VFR Marginale   IFR   IFR Intensivo   IFR Molto Intensivo
Visibilità : 
Base nubi : 
>= 8 km
>= 3000ft
5 / 8 km
1000 / 3000 ft
1500m / 5 km
500 / 1000 ft
800 / 1500m
200 / 500 ft
< 800m
< 200 ft
Simboli :   Temporali  Nebbia  Neve Forte  Precipitazioni Forti  Vento > 20 kt
SIGMETs :   Varie  Temporali  Ghiacco  Turbolenza  Onda orograficha  Ceneri Vulcaniche






- Altitudine del aeroporto : 17 ft
- Codice IATA : STA


EKVJ - Stauning

ULTIMO METAR :
  • 230720Z 15005KT 110V190 9999 SCT007 SCT015CB BKN020 19/17 Q1012

METARs OBSOLETI :
  • 230650Z AUTO 15005KT 110V180 9999 SCT007/// 17/16 Q1013
  • 230620Z AUTO 13006KT 100V170 9999 FEW006/// SCT089/// 17/16 Q1012
  • 230523Z 13007KT 090V150 9999 BKN005 16/15 Q1012
  • 230450Z AUTO 14006KT 9999 BKN004/// SCT019/// OVC080/// 15/15 Q1012 TEST
  • 230420Z AUTO 14005KT 110V170 9999 BKN005/// BKN016/// BKN080/// 15/15 Q1013 TEST
  • 230350Z AUTO 14004KT 9999 BKN008/// SCT070/// 15/14 Q1013 TEST
  • 230320Z AUTO 14006KT 9999 BKN010/// OVC066/// 15/14 Q1013 TEST
  • 230250Z AUTO 14005KT 9999 SCT012/// BKN022/// OVC029/// 15/14 Q1013 TEST

Previsioni scadute.



MetMap, La meteo Aeronautica in un colpo d'occhio ! - Copyright ORBIFLY Dicembre 2007 - Disclaimer

ORBIFLY MET'MAP TEAM :

Programmazione e sviluppo : Alexandra Zaïnal
Concezione : Baudouin d'Aumeries
Supporto tecnico e logistico : Manuel Goepfert
Aiuto : Marc-Olivier Méhu
Aiuto per la traduzione : Arnaldo La Scala




FONTI E CREDITI :

   NOAA